sensor_id;sensor_type;location;lat;lon;timestamp;P1;durP1;ratioP1;P2;durP2;ratioP2
23658;SDS011;12006;42.666;23.326;2023-12-14T00:01:32;13.03;;;8.53;;
23658;SDS011;12006;42.666;23.326;2023-12-14T00:03:57;9.83;;;7.97;;
23658;SDS011;12006;42.666;23.326;2023-12-14T00:06:23;15.77;;;7.17;;
23658;SDS011;12006;42.666;23.326;2023-12-14T00:08:48;8.97;;;6.53;;
23658;SDS011;12006;42.666;23.326;2023-12-14T00:11:13;13.40;;;7.77;;
23658;SDS011;12006;42.666;23.326;2023-12-14T00:13:38;11.63;;;6.93;;
23658;SDS011;12006;42.666;23.326;2023-12-14T00:16:04;10.53;;;7.43;;
23658;SDS011;12006;42.666;23.326;2023-12-14T00:18:29;10.17;;;7.10;;
23658;SDS011;12006;42.666;23.326;2023-12-14T00:20:54;8.87;;;6.10;;
23658;SDS011;12006;42.666;23.326;2023-12-14T00:23:20;11.70;;;6.83;;
23658;SDS011;12006;42.666;23.326;2023-12-14T00:25:46;10.33;;;6.30;;
23658;SDS011;12006;42.666;23.326;2023-12-14T00:28:11;7.27;;;6.30;;
23658;SDS011;12006;42.666;23.326;2023-12-14T00:30:36;9.17;;;7.33;;
23658;SDS011;12006;42.666;23.326;2023-12-14T00:33:01;9.37;;;5.97;;
23658;SDS011;12006;42.666;23.326;2023-12-14T00:35:27;11.73;;;7.07;;
23658;SDS011;12006;42.666;23.326;2023-12-14T00:37:52;11.10;;;6.87;;
23658;SDS011;12006;42.666;23.326;2023-12-14T00:40:17;11.27;;;6.63;;
23658;SDS011;12006;42.666;23.326;2023-12-14T00:42:42;9.17;;;7.20;;
23658;SDS011;12006;42.666;23.326;2023-12-14T00:45:08;7.23;;;5.87;;
23658;SDS011;12006;42.666;23.326;2023-12-14T00:47:33;10.17;;;6.67;;
23658;SDS011;12006;42.666;23.326;2023-12-14T00:49:58;12.63;;;7.37;;
23658;SDS011;12006;42.666;23.326;2023-12-14T00:52:24;11.03;;;6.47;;
23658;SDS011;12006;42.666;23.326;2023-12-14T00:54:49;9.87;;;6.20;;
23658;SDS011;12006;42.666;23.326;2023-12-14T00:57:14;9.83;;;5.77;;
23658;SDS011;12006;42.666;23.326;2023-12-14T00:59:39;9.50;;;6.80;;
23658;SDS011;12006;42.666;23.326;2023-12-14T01:02:05;9.83;;;6.57;;
23658;SDS011;12006;42.666;23.326;2023-12-14T01:04:30;10.33;;;7.53;;
23658;SDS011;12006;42.666;23.326;2023-12-14T01:06:56;15.17;;;6.80;;
23658;SDS011;12006;42.666;23.326;2023-12-14T01:09:21;8.27;;;5.83;;
23658;SDS011;12006;42.666;23.326;2023-12-14T01:11:46;8.27;;;6.63;;
23658;SDS011;12006;42.666;23.326;2023-12-14T01:14:11;10.20;;;6.43;;
23658;SDS011;12006;42.666;23.326;2023-12-14T01:16:37;10.60;;;6.80;;
23658;SDS011;12006;42.666;23.326;2023-12-14T01:19:03;9.70;;;6.70;;
23658;SDS011;12006;42.666;23.326;2023-12-14T01:21:30;10.87;;;6.67;;
23658;SDS011;12006;42.666;23.326;2023-12-14T01:23:55;8.70;;;6.23;;
23658;SDS011;12006;42.666;23.326;2023-12-14T01:26:21;12.63;;;6.17;;
23658;SDS011;12006;42.666;23.326;2023-12-14T01:28:46;10.43;;;7.10;;
23658;SDS011;12006;42.666;23.326;2023-12-14T01:31:11;9.73;;;6.67;;
23658;SDS011;12006;42.666;23.326;2023-12-14T01:33:36;11.70;;;7.83;;
23658;SDS011;12006;42.666;23.326;2023-12-14T01:36:01;12.20;;;7.80;;
23658;SDS011;12006;42.666;23.326;2023-12-14T01:38:27;12.63;;;7.23;;
23658;SDS011;12006;42.666;23.326;2023-12-14T01:40:52;10.40;;;7.77;;
23658;SDS011;12006;42.666;23.326;2023-12-14T01:43:17;11.80;;;7.60;;
23658;SDS011;12006;42.666;23.326;2023-12-14T01:45:43;13.37;;;8.33;;
23658;SDS011;12006;42.666;23.326;2023-12-14T01:48:08;13.23;;;7.00;;
23658;SDS011;12006;42.666;23.326;2023-12-14T01:50:33;8.90;;;6.60;;
23658;SDS011;12006;42.666;23.326;2023-12-14T01:52:58;14.10;;;8.43;;
23658;SDS011;12006;42.666;23.326;2023-12-14T01:55:23;10.27;;;7.67;;
23658;SDS011;12006;42.666;23.326;2023-12-14T01:57:50;10.30;;;7.40;;
23658;SDS011;12006;42.666;23.326;2023-12-14T02:00:19;12.43;;;7.73;;
23658;SDS011;12006;42.666;23.326;2023-12-14T02:02:46;13.43;;;8.33;;
23658;SDS011;12006;42.666;23.326;2023-12-14T02:05:11;11.90;;;7.40;;
23658;SDS011;12006;42.666;23.326;2023-12-14T02:07:36;13.13;;;8.00;;
23658;SDS011;12006;42.666;23.326;2023-12-14T02:10:01;11.23;;;7.07;;
23658;SDS011;12006;42.666;23.326;2023-12-14T02:12:27;9.80;;;7.43;;
23658;SDS011;12006;42.666;23.326;2023-12-14T02:14:52;11.20;;;7.47;;
23658;SDS011;12006;42.666;23.326;2023-12-14T02:17:17;10.40;;;6.73;;
23658;SDS011;12006;42.666;23.326;2023-12-14T02:19:42;8.50;;;6.63;;
23658;SDS011;12006;42.666;23.326;2023-12-14T02:22:08;10.97;;;7.27;;
23658;SDS011;12006;42.666;23.326;2023-12-14T02:24:33;13.23;;;7.27;;
23658;SDS011;12006;42.666;23.326;2023-12-14T02:26:58;12.23;;;7.93;;
23658;SDS011;12006;42.666;23.326;2023-12-14T02:29:23;10.63;;;7.17;;
23658;SDS011;12006;42.666;23.326;2023-12-14T02:31:49;11.67;;;7.77;;
23658;SDS011;12006;42.666;23.326;2023-12-14T02:34:14;10.50;;;6.87;;
23658;SDS011;12006;42.666;23.326;2023-12-14T02:36:39;11.93;;;7.10;;
23658;SDS011;12006;42.666;23.326;2023-12-14T02:39:04;11.30;;;6.87;;
23658;SDS011;12006;42.666;23.326;2023-12-14T02:41:30;12.43;;;7.70;;
23658;SDS011;12006;42.666;23.326;2023-12-14T02:43:55;11.20;;;6.50;;
23658;SDS011;12006;42.666;23.326;2023-12-14T02:46:20;9.20;;;6.53;;
23658;SDS011;12006;42.666;23.326;2023-12-14T02:48:45;19.67;;;8.93;;
23658;SDS011;12006;42.666;23.326;2023-12-14T02:51:14;9.47;;;6.53;;
23658;SDS011;12006;42.666;23.326;2023-12-14T02:53:42;10.83;;;6.40;;
23658;SDS011;12006;42.666;23.326;2023-12-14T02:56:08;13.47;;;6.87;;
23658;SDS011;12006;42.666;23.326;2023-12-14T02:58:34;10.60;;;6.30;;
23658;SDS011;12006;42.666;23.326;2023-12-14T03:00:59;11.20;;;6.97;;
23658;SDS011;12006;42.666;23.326;2023-12-14T03:03:24;8.77;;;6.47;;
23658;SDS011;12006;42.666;23.326;2023-12-14T03:05:49;9.57;;;5.40;;
23658;SDS011;12006;42.666;23.326;2023-12-14T03:08:14;11.53;;;7.43;;
23658;SDS011;12006;42.666;23.326;2023-12-14T03:10:40;9.13;;;5.97;;
23658;SDS011;12006;42.666;23.326;2023-12-14T03:13:05;9.53;;;5.93;;
23658;SDS011;12006;42.666;23.326;2023-12-14T03:15:30;10.33;;;6.13;;
23658;SDS011;12006;42.666;23.326;2023-12-14T03:17:55;9.23;;;5.87;;
23658;SDS011;12006;42.666;23.326;2023-12-14T03:20:21;8.27;;;5.13;;
23658;SDS011;12006;42.666;23.326;2023-12-14T03:22:46;11.27;;;6.20;;
23658;SDS011;12006;42.666;23.326;2023-12-14T03:25:11;6.50;;;5.30;;
23658;SDS011;12006;42.666;23.326;2023-12-14T03:27:36;8.73;;;5.30;;
23658;SDS011;12006;42.666;23.326;2023-12-14T03:30:01;6.10;;;5.20;;
23658;SDS011;12006;42.666;23.326;2023-12-14T03:32:28;7.57;;;5.50;;
23658;SDS011;12006;42.666;23.326;2023-12-14T03:34:53;6.60;;;5.27;;
23658;SDS011;12006;42.666;23.326;2023-12-14T03:37:19;6.47;;;4.67;;
23658;SDS011;12006;42.666;23.326;2023-12-14T03:39:44;9.90;;;6.17;;
23658;SDS011;12006;42.666;23.326;2023-12-14T03:42:09;7.60;;;5.33;;
23658;SDS011;12006;42.666;23.326;2023-12-14T03:44:34;7.30;;;4.97;;
23658;SDS011;12006;42.666;23.326;2023-12-14T03:46:59;8.23;;;6.07;;
23658;SDS011;12006;42.666;23.326;2023-12-14T03:49:25;6.83;;;5.07;;
23658;SDS011;12006;42.666;23.326;2023-12-14T03:51:50;9.57;;;5.33;;
23658;SDS011;12006;42.666;23.326;2023-12-14T03:54:15;7.47;;;5.80;;
23658;SDS011;12006;42.666;23.326;2023-12-14T03:56:40;8.20;;;5.13;;
23658;SDS011;12006;42.666;23.326;2023-12-14T03:59:06;7.30;;;4.97;;
23658;SDS011;12006;42.666;23.326;2023-12-14T04:01:31;9.37;;;5.90;;
23658;SDS011;12006;42.666;23.326;2023-12-14T04:03:56;9.07;;;5.07;;
23658;SDS011;12006;42.666;23.326;2023-12-14T04:06:22;9.00;;;5.63;;
23658;SDS011;12006;42.666;23.326;2023-12-14T04:08:47;8.30;;;5.80;;
23658;SDS011;12006;42.666;23.326;2023-12-14T04:11:12;6.63;;;4.80;;
23658;SDS011;12006;42.666;23.326;2023-12-14T04:13:38;6.47;;;4.77;;
23658;SDS011;12006;42.666;23.326;2023-12-14T04:16:03;9.90;;;5.37;;
23658;SDS011;12006;42.666;23.326;2023-12-14T04:18:29;8.70;;;5.90;;
23658;SDS011;12006;42.666;23.326;2023-12-14T04:20:54;6.27;;;5.07;;
23658;SDS011;12006;42.666;23.326;2023-12-14T04:23:19;7.83;;;5.00;;
23658;SDS011;12006;42.666;23.326;2023-12-14T04:25:44;6.93;;;4.47;;
23658;SDS011;12006;42.666;23.326;2023-12-14T04:28:10;7.37;;;5.50;;
23658;SDS011;12006;42.666;23.326;2023-12-14T04:30:35;6.63;;;4.70;;
23658;SDS011;12006;42.666;23.326;2023-12-14T04:33:00;10.37;;;5.77;;
23658;SDS011;12006;42.666;23.326;2023-12-14T04:35:25;6.77;;;5.27;;
23658;SDS011;12006;42.666;23.326;2023-12-14T04:37:51;9.47;;;5.90;;
23658;SDS011;12006;42.666;23.326;2023-12-14T04:40:16;8.57;;;5.30;;
23658;SDS011;12006;42.666;23.326;2023-12-14T04:42:41;6.90;;;4.87;;
23658;SDS011;12006;42.666;23.326;2023-12-14T04:45:06;6.50;;;4.30;;
23658;SDS011;12006;42.666;23.326;2023-12-14T04:47:34;5.90;;;4.13;;
23658;SDS011;12006;42.666;23.326;2023-12-14T04:49:59;8.07;;;5.17;;
23658;SDS011;12006;42.666;23.326;2023-12-14T04:52:24;8.47;;;5.97;;
23658;SDS011;12006;42.666;23.326;2023-12-14T04:54:49;7.23;;;5.47;;
23658;SDS011;12006;42.666;23.326;2023-12-14T04:57:14;6.37;;;5.33;;
23658;SDS011;12006;42.666;23.326;2023-12-14T04:59:43;10.70;;;5.93;;
23658;SDS011;12006;42.666;23.326;2023-12-14T05:02:08;8.27;;;5.77;;
23658;SDS011;12006;42.666;23.326;2023-12-14T05:04:33;5.57;;;4.27;;
23658;SDS011;12006;42.666;23.326;2023-12-14T05:06:58;7.67;;;5.67;;
23658;SDS011;12006;42.666;23.326;2023-12-14T05:09:24;7.17;;;5.70;;
23658;SDS011;12006;42.666;23.326;2023-12-14T05:11:49;5.30;;;4.37;;
23658;SDS011;12006;42.666;23.326;2023-12-14T05:14:14;8.33;;;5.57;;
23658;SDS011;12006;42.666;23.326;2023-12-14T05:16:39;6.77;;;4.83;;
23658;SDS011;12006;42.666;23.326;2023-12-14T05:19:04;7.53;;;4.97;;
23658;SDS011;12006;42.666;23.326;2023-12-14T05:21:30;8.07;;;5.87;;
23658;SDS011;12006;42.666;23.326;2023-12-14T05:23:55;10.33;;;6.33;;
23658;SDS011;12006;42.666;23.326;2023-12-14T05:26:20;8.53;;;5.33;;
23658;SDS011;12006;42.666;23.326;2023-12-14T05:28:46;8.67;;;5.77;;
23658;SDS011;12006;42.666;23.326;2023-12-14T05:31:11;7.90;;;5.40;;
23658;SDS011;12006;42.666;23.326;2023-12-14T05:33:36;7.10;;;5.83;;
23658;SDS011;12006;42.666;23.326;2023-12-14T05:36:02;7.40;;;5.73;;
23658;SDS011;12006;42.666;23.326;2023-12-14T05:38:30;7.60;;;5.60;;
23658;SDS011;12006;42.666;23.326;2023-12-14T05:40:55;7.63;;;5.90;;
23658;SDS011;12006;42.666;23.326;2023-12-14T05:43:20;6.50;;;4.97;;
23658;SDS011;12006;42.666;23.326;2023-12-14T05:45:45;6.57;;;5.20;;
23658;SDS011;12006;42.666;23.326;2023-12-14T05:48:10;9.17;;;5.07;;
23658;SDS011;12006;42.666;23.326;2023-12-14T05:50:36;5.67;;;4.40;;
23658;SDS011;12006;42.666;23.326;2023-12-14T05:53:01;5.73;;;4.40;;
23658;SDS011;12006;42.666;23.326;2023-12-14T05:55:26;8.03;;;5.03;;
23658;SDS011;12006;42.666;23.326;2023-12-14T05:57:51;11.37;;;5.07;;
23658;SDS011;12006;42.666;23.326;2023-12-14T06:00:17;7.27;;;5.50;;
23658;SDS011;12006;42.666;23.326;2023-12-14T06:02:42;6.67;;;4.67;;
23658;SDS011;12006;42.666;23.326;2023-12-14T06:05:08;5.50;;;3.97;;
23658;SDS011;12006;42.666;23.326;2023-12-14T06:07:33;7.53;;;5.77;;
23658;SDS011;12006;42.666;23.326;2023-12-14T06:09:58;7.63;;;5.33;;
23658;SDS011;12006;42.666;23.326;2023-12-14T06:12:24;6.10;;;4.67;;
23658;SDS011;12006;42.666;23.326;2023-12-14T06:14:49;6.30;;;4.43;;
23658;SDS011;12006;42.666;23.326;2023-12-14T06:17:15;9.03;;;6.67;;
23658;SDS011;12006;42.666;23.326;2023-12-14T06:19:40;8.60;;;5.70;;
23658;SDS011;12006;42.666;23.326;2023-12-14T06:22:05;5.73;;;4.03;;
23658;SDS011;12006;42.666;23.326;2023-12-14T06:24:31;8.60;;;5.47;;
23658;SDS011;12006;42.666;23.326;2023-12-14T06:26:56;6.03;;;4.93;;
23658;SDS011;12006;42.666;23.326;2023-12-14T06:29:21;7.90;;;5.43;;
23658;SDS011;12006;42.666;23.326;2023-12-14T06:31:46;6.03;;;4.97;;
23658;SDS011;12006;42.666;23.326;2023-12-14T06:34:11;5.87;;;4.60;;
23658;SDS011;12006;42.666;23.326;2023-12-14T06:36:37;8.70;;;6.17;;
23658;SDS011;12006;42.666;23.326;2023-12-14T06:39:06;9.17;;;5.90;;
23658;SDS011;12006;42.666;23.326;2023-12-14T06:41:32;8.63;;;5.80;;
23658;SDS011;12006;42.666;23.326;2023-12-14T06:43:57;8.77;;;6.53;;
23658;SDS011;12006;42.666;23.326;2023-12-14T06:46:23;9.57;;;5.53;;
23658;SDS011;12006;42.666;23.326;2023-12-14T06:48:48;9.17;;;5.80;;
23658;SDS011;12006;42.666;23.326;2023-12-14T06:51:13;7.77;;;6.00;;
23658;SDS011;12006;42.666;23.326;2023-12-14T06:53:39;7.60;;;5.03;;
23658;SDS011;12006;42.666;23.326;2023-12-14T06:56:05;11.00;;;5.73;;
23658;SDS011;12006;42.666;23.326;2023-12-14T06:58:31;10.90;;;6.10;;
23658;SDS011;12006;42.666;23.326;2023-12-14T07:00:56;9.10;;;6.93;;
23658;SDS011;12006;42.666;23.326;2023-12-14T07:03:22;8.30;;;6.47;;
23658;SDS011;12006;42.666;23.326;2023-12-14T07:05:47;7.83;;;6.40;;
23658;SDS011;12006;42.666;23.326;2023-12-14T07:08:12;14.17;;;8.13;;
23658;SDS011;12006;42.666;23.326;2023-12-14T07:10:37;7.57;;;5.80;;
23658;SDS011;12006;42.666;23.326;2023-12-14T07:13:02;7.43;;;5.53;;
23658;SDS011;12006;42.666;23.326;2023-12-14T07:15:28;6.67;;;5.23;;
23658;SDS011;12006;42.666;23.326;2023-12-14T07:17:53;8.27;;;6.00;;
23658;SDS011;12006;42.666;23.326;2023-12-14T07:20:18;7.97;;;5.80;;
23658;SDS011;12006;42.666;23.326;2023-12-14T07:22:43;7.93;;;6.10;;
23658;SDS011;12006;42.666;23.326;2023-12-14T07:25:09;9.20;;;5.90;;
23658;SDS011;12006;42.666;23.326;2023-12-14T07:27:34;9.77;;;6.03;;
23658;SDS011;12006;42.666;23.326;2023-12-14T07:29:59;7.77;;;5.40;;
23658;SDS011;12006;42.666;23.326;2023-12-14T07:32:25;6.93;;;5.83;;
23658;SDS011;12006;42.666;23.326;2023-12-14T07:34:50;9.83;;;6.27;;
23658;SDS011;12006;42.666;23.326;2023-12-14T07:37:15;7.43;;;5.70;;
23658;SDS011;12006;42.666;23.326;2023-12-14T07:39:40;9.80;;;6.00;;
23658;SDS011;12006;42.666;23.326;2023-12-14T07:42:05;11.97;;;8.07;;
23658;SDS011;12006;42.666;23.326;2023-12-14T07:44:31;9.30;;;6.50;;
23658;SDS011;12006;42.666;23.326;2023-12-14T07:46:59;9.07;;;5.53;;
23658;SDS011;12006;42.666;23.326;2023-12-14T07:49:24;9.30;;;6.27;;
23658;SDS011;12006;42.666;23.326;2023-12-14T07:51:49;8.13;;;5.70;;
23658;SDS011;12006;42.666;23.326;2023-12-14T07:54:15;8.10;;;4.83;;
23658;SDS011;12006;42.666;23.326;2023-12-14T07:56:40;7.27;;;5.40;;
23658;SDS011;12006;42.666;23.326;2023-12-14T07:59:06;9.20;;;6.10;;
23658;SDS011;12006;42.666;23.326;2023-12-14T08:01:32;6.90;;;5.30;;
23658;SDS011;12006;42.666;23.326;2023-12-14T08:03:57;6.90;;;4.50;;
23658;SDS011;12006;42.666;23.326;2023-12-14T08:06:23;9.43;;;4.53;;
23658;SDS011;12006;42.666;23.326;2023-12-14T08:08:48;10.50;;;5.33;;
23658;SDS011;12006;42.666;23.326;2023-12-14T08:11:13;6.40;;;5.30;;
23658;SDS011;12006;42.666;23.326;2023-12-14T08:13:38;6.30;;;4.90;;
23658;SDS011;12006;42.666;23.326;2023-12-14T08:16:04;6.57;;;5.10;;
23658;SDS011;12006;42.666;23.326;2023-12-14T08:18:29;5.97;;;4.57;;
23658;SDS011;12006;42.666;23.326;2023-12-14T08:20:54;6.57;;;5.03;;
23658;SDS011;12006;42.666;23.326;2023-12-14T08:23:20;7.17;;;4.33;;
23658;SDS011;12006;42.666;23.326;2023-12-14T08:25:45;5.27;;;4.77;;
23658;SDS011;12006;42.666;23.326;2023-12-14T08:28:11;7.13;;;4.23;;
23658;SDS011;12006;42.666;23.326;2023-12-14T08:30:36;7.70;;;5.20;;
23658;SDS011;12006;42.666;23.326;2023-12-14T08:33:04;8.13;;;5.23;;
23658;SDS011;12006;42.666;23.326;2023-12-14T08:35:29;8.20;;;4.50;;
23658;SDS011;12006;42.666;23.326;2023-12-14T08:37:54;6.77;;;3.97;;
23658;SDS011;12006;42.666;23.326;2023-12-14T08:40:19;4.83;;;3.40;;
23658;SDS011;12006;42.666;23.326;2023-12-14T08:42:46;5.47;;;3.93;;
23658;SDS011;12006;42.666;23.326;2023-12-14T08:45:11;6.53;;;5.03;;
23658;SDS011;12006;42.666;23.326;2023-12-14T08:47:37;4.50;;;3.67;;
23658;SDS011;12006;42.666;23.326;2023-12-14T08:50:02;4.27;;;3.73;;
23658;SDS011;12006;42.666;23.326;2023-12-14T08:52:27;6.57;;;4.40;;
23658;SDS011;12006;42.666;23.326;2023-12-14T08:54:52;5.93;;;4.70;;
23658;SDS011;12006;42.666;23.326;2023-12-14T08:57:18;5.87;;;4.20;;
23658;SDS011;12006;42.666;23.326;2023-12-14T08:59:43;5.77;;;4.03;;
23658;SDS011;12006;42.666;23.326;2023-12-14T09:02:08;4.57;;;3.43;;
23658;SDS011;12006;42.666;23.326;2023-12-14T09:04:33;6.27;;;3.80;;
23658;SDS011;12006;42.666;23.326;2023-12-14T09:07:00;4.83;;;3.73;;
23658;SDS011;12006;42.666;23.326;2023-12-14T09:09:26;5.93;;;4.53;;
23658;SDS011;12006;42.666;23.326;2023-12-14T09:11:51;5.20;;;4.70;;
23658;SDS011;12006;42.666;23.326;2023-12-14T09:14:16;5.50;;;3.93;;
23658;SDS011;12006;42.666;23.326;2023-12-14T09:16:41;6.73;;;4.00;;
23658;SDS011;12006;42.666;23.326;2023-12-14T09:19:07;5.50;;;3.73;;
23658;SDS011;12006;42.666;23.326;2023-12-14T09:21:32;4.27;;;3.00;;
23658;SDS011;12006;42.666;23.326;2023-12-14T09:23:58;6.87;;;3.50;;
23658;SDS011;12006;42.666;23.326;2023-12-14T09:26:23;4.00;;;3.17;;
23658;SDS011;12006;42.666;23.326;2023-12-14T09:28:48;5.97;;;3.90;;
23658;SDS011;12006;42.666;23.326;2023-12-14T09:31:13;5.33;;;3.80;;
23658;SDS011;12006;42.666;23.326;2023-12-14T09:33:41;7.57;;;3.60;;
23658;SDS011;12006;42.666;23.326;2023-12-14T09:36:06;4.83;;;3.70;;
23658;SDS011;12006;42.666;23.326;2023-12-14T09:38:31;5.30;;;3.50;;
23658;SDS011;12006;42.666;23.326;2023-12-14T09:40:56;4.50;;;3.43;;
23658;SDS011;12006;42.666;23.326;2023-12-14T09:43:22;5.70;;;3.27;;
23658;SDS011;12006;42.666;23.326;2023-12-14T09:45:48;4.63;;;3.27;;
23658;SDS011;12006;42.666;23.326;2023-12-14T09:48:15;6.73;;;4.17;;
23658;SDS011;12006;42.666;23.326;2023-12-14T09:50:40;8.77;;;5.67;;
23658;SDS011;12006;42.666;23.326;2023-12-14T09:53:05;7.70;;;3.70;;
23658;SDS011;12006;42.666;23.326;2023-12-14T09:55:32;4.77;;;3.20;;
23658;SDS011;12006;42.666;23.326;2023-12-14T09:57:58;3.17;;;2.60;;
23658;SDS011;12006;42.666;23.326;2023-12-14T10:00:33;4.65;;;3.70;;
23658;SDS011;12006;42.666;23.326;2023-12-14T10:03:16;5.10;;;3.38;;
23658;SDS011;12006;42.666;23.326;2023-12-14T10:05:42;7.90;;;3.30;;
23658;SDS011;12006;42.666;23.326;2023-12-14T10:08:07;4.47;;;3.30;;
23658;SDS011;12006;42.666;23.326;2023-12-14T10:10:32;8.37;;;5.33;;
23658;SDS011;12006;42.666;23.326;2023-12-14T10:12:57;4.80;;;3.47;;
23658;SDS011;12006;42.666;23.326;2023-12-14T10:15:23;5.25;;;3.30;;
23658;SDS011;12006;42.666;23.326;2023-12-14T10:17:52;4.43;;;3.43;;
23658;SDS011;12006;42.666;23.326;2023-12-14T10:20:22;5.00;;;3.17;;
23658;SDS011;12006;42.666;23.326;2023-12-14T10:22:48;6.63;;;4.33;;
23658;SDS011;12006;42.666;23.326;2023-12-14T10:25:14;4.43;;;3.63;;
23658;SDS011;12006;42.666;23.326;2023-12-14T10:27:39;6.17;;;4.40;;
23658;SDS011;12006;42.666;23.326;2023-12-14T10:30:06;5.63;;;3.57;;
23658;SDS011;12006;42.666;23.326;2023-12-14T10:32:31;5.03;;;3.47;;
23658;SDS011;12006;42.666;23.326;2023-12-14T10:34:57;6.57;;;3.73;;
23658;SDS011;12006;42.666;23.326;2023-12-14T10:37:23;6.97;;;4.10;;
23658;SDS011;12006;42.666;23.326;2023-12-14T10:39:49;6.03;;;4.10;;
23658;SDS011;12006;42.666;23.326;2023-12-14T10:42:15;8.40;;;4.43;;
23658;SDS011;12006;42.666;23.326;2023-12-14T10:44:43;5.70;;;4.50;;
23658;SDS011;12006;42.666;23.326;2023-12-14T10:47:09;6.60;;;4.70;;
23658;SDS011;12006;42.666;23.326;2023-12-14T10:49:34;6.30;;;4.40;;
23658;SDS011;12006;42.666;23.326;2023-12-14T10:52:01;6.77;;;4.97;;
23658;SDS011;12006;42.666;23.326;2023-12-14T10:54:28;8.37;;;5.40;;
23658;SDS011;12006;42.666;23.326;2023-12-14T10:56:56;9.60;;;5.00;;
23658;SDS011;12006;42.666;23.326;2023-12-14T10:59:21;6.83;;;4.97;;
23658;SDS011;12006;42.666;23.326;2023-12-14T11:01:54;5.80;;;4.73;;
23658;SDS011;12006;42.666;23.326;2023-12-14T11:04:23;6.57;;;4.87;;
23658;SDS011;12006;42.666;23.326;2023-12-14T11:06:48;4.67;;;3.87;;
23658;SDS011;12006;42.666;23.326;2023-12-14T11:09:14;5.77;;;3.63;;
23658;SDS011;12006;42.666;23.326;2023-12-14T11:11:55;3.93;;;2.60;;
23658;SDS011;12006;42.666;23.326;2023-12-14T11:14:25;6.33;;;3.83;;
23658;SDS011;12006;42.666;23.326;2023-12-14T11:16:53;2.67;;;2.10;;
23658;SDS011;12006;42.666;23.326;2023-12-14T11:21:47;3.37;;;2.30;;
23658;SDS011;12006;42.666;23.326;2023-12-14T11:24:13;2.10;;;1.40;;
23658;SDS011;12006;42.666;23.326;2023-12-14T11:26:38;2.03;;;1.70;;
23658;SDS011;12006;42.666;23.326;2023-12-14T11:29:04;3.13;;;1.50;;
23658;SDS011;12006;42.666;23.326;2023-12-14T11:31:31;2.00;;;1.67;;
23658;SDS011;12006;42.666;23.326;2023-12-14T11:33:56;1.90;;;1.43;;
23658;SDS011;12006;42.666;23.326;2023-12-14T11:36:21;2.03;;;1.67;;
23658;SDS011;12006;42.666;23.326;2023-12-14T11:38:47;1.83;;;1.37;;
23658;SDS011;12006;42.666;23.326;2023-12-14T11:41:13;1.87;;;1.20;;
23658;SDS011;12006;42.666;23.326;2023-12-14T11:43:38;2.50;;;1.30;;
23658;SDS011;12006;42.666;23.326;2023-12-14T11:46:04;0.93;;;0.93;;
23658;SDS011;12006;42.666;23.326;2023-12-14T11:48:29;0.70;;;0.70;;
23658;SDS011;12006;42.666;23.326;2023-12-14T11:50:54;2.10;;;0.97;;
23658;SDS011;12006;42.666;23.326;2023-12-14T11:53:20;1.30;;;0.80;;
23658;SDS011;12006;42.666;23.326;2023-12-14T11:55:45;0.60;;;0.60;;
23658;SDS011;12006;42.666;23.326;2023-12-14T11:58:13;1.10;;;1.00;;
23658;SDS011;12006;42.666;23.326;2023-12-14T12:00:40;1.33;;;0.80;;
23658;SDS011;12006;42.666;23.326;2023-12-14T12:03:09;0.60;;;0.50;;
23658;SDS011;12006;42.666;23.326;2023-12-14T12:05:35;0.53;;;0.40;;
23658;SDS011;12006;42.666;23.326;2023-12-14T12:08:00;0.50;;;0.50;;
23658;SDS011;12006;42.666;23.326;2023-12-14T12:10:25;0.57;;;0.40;;
23658;SDS011;12006;42.666;23.326;2023-12-14T12:12:58;0.40;;;0.30;;
23658;SDS011;12006;42.666;23.326;2023-12-14T12:15:23;0.87;;;0.53;;
23658;SDS011;12006;42.666;23.326;2023-12-14T12:17:48;0.53;;;0.40;;
23658;SDS011;12006;42.666;23.326;2023-12-14T12:20:14;1.53;;;0.90;;
23658;SDS011;12006;42.666;23.326;2023-12-14T12:22:39;1.40;;;0.30;;
23658;SDS011;12006;42.666;23.326;2023-12-14T12:25:04;1.43;;;0.60;;
23658;SDS011;12006;42.666;23.326;2023-12-14T12:27:30;0.37;;;0.33;;
23658;SDS011;12006;42.666;23.326;2023-12-14T12:29:55;0.67;;;0.40;;
23658;SDS011;12006;42.666;23.326;2023-12-14T12:32:20;0.60;;;0.30;;
23658;SDS011;12006;42.666;23.326;2023-12-14T12:34:46;0.50;;;0.47;;
23658;SDS011;12006;42.666;23.326;2023-12-14T12:37:11;0.30;;;0.23;;
23658;SDS011;12006;42.666;23.326;2023-12-14T12:39:36;1.80;;;0.40;;
23658;SDS011;12006;42.666;23.326;2023-12-14T12:42:01;0.60;;;0.33;;
23658;SDS011;12006;42.666;23.326;2023-12-14T12:44:27;0.70;;;0.30;;
23658;SDS011;12006;42.666;23.326;2023-12-14T12:46:52;0.63;;;0.40;;
23658;SDS011;12006;42.666;23.326;2023-12-14T12:49:22;0.90;;;0.40;;
23658;SDS011;12006;42.666;23.326;2023-12-14T12:51:47;0.40;;;0.40;;
23658;SDS011;12006;42.666;23.326;2023-12-14T12:54:12;0.40;;;0.40;;
23658;SDS011;12006;42.666;23.326;2023-12-14T12:56:38;1.90;;;0.30;;
23658;SDS011;12006;42.666;23.326;2023-12-14T12:59:03;0.27;;;0.20;;
23658;SDS011;12006;42.666;23.326;2023-12-14T13:01:29;1.53;;;0.47;;
23658;SDS011;12006;42.666;23.326;2023-12-14T13:03:55;0.43;;;0.40;;
23658;SDS011;12006;42.666;23.326;2023-12-14T13:06:23;0.37;;;0.37;;
23658;SDS011;12006;42.666;23.326;2023-12-14T13:08:48;0.30;;;0.20;;
23658;SDS011;12006;42.666;23.326;2023-12-14T13:11:13;0.80;;;0.40;;
23658;SDS011;12006;42.666;23.326;2023-12-14T13:13:39;0.50;;;0.20;;
23658;SDS011;12006;42.666;23.326;2023-12-14T13:16:05;1.33;;;0.60;;
23658;SDS011;12006;42.666;23.326;2023-12-14T13:18:30;0.50;;;0.30;;
23658;SDS011;12006;42.666;23.326;2023-12-14T13:20:55;0.40;;;0.30;;
23658;SDS011;12006;42.666;23.326;2023-12-14T13:23:20;1.47;;;0.43;;
23658;SDS011;12006;42.666;23.326;2023-12-14T13:25:45;0.13;;;0.13;;
23658;SDS011;12006;42.666;23.326;2023-12-14T13:28:11;0.37;;;0.30;;
23658;SDS011;12006;42.666;23.326;2023-12-14T13:30:37;2.40;;;1.50;;
23658;SDS011;12006;42.666;23.326;2023-12-14T13:33:02;0.43;;;0.23;;
23658;SDS011;12006;42.666;23.326;2023-12-14T13:35:29;1.13;;;0.50;;
23658;SDS011;12006;42.666;23.326;2023-12-14T13:37:54;0.67;;;0.30;;
23658;SDS011;12006;42.666;23.326;2023-12-14T13:40:19;0.53;;;0.50;;
23658;SDS011;12006;42.666;23.326;2023-12-14T13:42:45;0.40;;;0.40;;
23658;SDS011;12006;42.666;23.326;2023-12-14T13:45:10;0.40;;;0.40;;
23658;SDS011;12006;42.666;23.326;2023-12-14T13:47:35;0.50;;;0.50;;
23658;SDS011;12006;42.666;23.326;2023-12-14T13:50:00;3.43;;;0.40;;
23658;SDS011;12006;42.666;23.326;2023-12-14T13:52:28;0.20;;;0.20;;
23658;SDS011;12006;42.666;23.326;2023-12-14T13:54:53;0.33;;;0.20;;
23658;SDS011;12006;42.666;23.326;2023-12-14T13:57:21;0.57;;;0.30;;
23658;SDS011;12006;42.666;23.326;2023-12-14T13:59:47;0.30;;;0.30;;
23658;SDS011;12006;42.666;23.326;2023-12-14T14:02:12;0.10;;;0.10;;
23658;SDS011;12006;42.666;23.326;2023-12-14T14:04:38;0.40;;;0.40;;
23658;SDS011;12006;42.666;23.326;2023-12-14T14:07:03;0.47;;;0.23;;
23658;SDS011;12006;42.666;23.326;2023-12-14T14:09:28;0.47;;;0.40;;
23658;SDS011;12006;42.666;23.326;2023-12-14T14:11:54;0.30;;;0.30;;
23658;SDS011;12006;42.666;23.326;2023-12-14T14:14:19;0.30;;;0.30;;
23658;SDS011;12006;42.666;23.326;2023-12-14T14:16:44;0.63;;;0.50;;
23658;SDS011;12006;42.666;23.326;2023-12-14T14:19:10;1.23;;;0.57;;
23658;SDS011;12006;42.666;23.326;2023-12-14T14:21:35;1.17;;;0.40;;
23658;SDS011;12006;42.666;23.326;2023-12-14T14:24:00;0.40;;;0.33;;
23658;SDS011;12006;42.666;23.326;2023-12-14T14:26:25;0.60;;;0.40;;